Time;durP1;ratioP1;P1;durP2;ratioP2;P2;SDS_P1;SDS_P2;PMS_P1;PMS_P2;Temp;Humidity;BMP_temperature;BMP_pressure;BME280_temperature;BME280_humidity;BME280_pressure;Samples;Min_cycle;Max_cycle;Signal;HPM_P1;HPM_P2
2023/08/17 00:02:28;;;;;;;4.10;2.15;;;;;;;23.26;76.47;99834.56;4439802;32;34016;-83
2023/08/17 00:04:56;;;;;;;3.50;2.08;;;;;;;23.21;76.68;99834.84;4440748;32;33575;-82
2023/08/17 00:07:25;;;;;;;3.17;1.85;;;;;;;23.32;76.03;99828.91;4443290;32;34840;-83
2023/08/17 00:09:57;;;;;;;3.78;2.30;;;;;;;23.26;76.15;99827.47;4436503;32;33282;-82
2023/08/17 00:12:26;;;;;;;4.20;2.42;;;;;;;23.23;76.00;99825.03;4440980;32;33735;-83
2023/08/17 00:14:55;;;;;;;3.95;2.40;;;;;;;23.27;76.40;99830.97;4443526;32;33323;-82
2023/08/17 00:17:23;;;;;;;4.20;2.15;;;;;;;23.21;76.21;99825.09;4447063;32;33685;-83
2023/08/17 00:19:54;;;;;;;4.35;2.03;;;;;;;23.17;76.25;99826.28;4446710;32;33605;-82
2023/08/17 00:22:23;;;;;;;3.33;2.03;;;;;;;23.14;75.98;99828.25;4445147;32;32961;-83
2023/08/17 00:24:52;;;;;;;4.10;2.08;;;;;;;23.07;76.69;99822.47;4442581;32;33612;-83
2023/08/17 00:27:21;;;;;;;3.97;1.80;;;;;;;23.34;75.33;99811.97;4441347;32;33697;-83
2023/08/17 00:29:49;;;;;;;4.47;2.37;;;;;;;23.10;76.43;99813.50;4449051;32;33744;-83
2023/08/17 00:32:18;;;;;;;2.83;1.60;;;;;;;23.10;76.55;99819.66;4441996;32;33046;-82
2023/08/17 00:34:48;;;;;;;3.80;2.37;;;;;;;23.19;76.42;99808.47;4443809;32;33898;-83
2023/08/17 00:37:18;;;;;;;5.03;2.47;;;;;;;23.47;74.46;99812.00;4441574;32;34268;-83
2023/08/17 00:39:47;;;;;;;3.53;1.77;;;;;;;23.29;75.45;99802.59;4449024;32;33063;-83
2023/08/17 00:42:16;;;;;;;4.00;2.40;;;;;;;23.18;75.51;99803.28;4442414;32;32965;-83
2023/08/17 00:44:45;;;;;;;5.32;2.37;;;;;;;23.06;76.49;99798.78;4443514;32;33578;-83
2023/08/17 00:47:14;;;;;;;3.55;2.25;;;;;;;23.19;76.28;99802.34;4441561;32;33590;-82
2023/08/17 00:49:43;;;;;;;2.95;1.80;;;;;;;23.22;76.39;99810.09;4442492;32;33653;-82
2023/08/17 00:52:12;;;;;;;3.22;1.77;;;;;;;23.33;75.71;99807.59;4444749;32;33249;-83
2023/08/17 00:54:46;;;;;;;6.15;2.95;;;;;;;22.99;77.84;99809.75;4436620;32;33043;-83
2023/08/17 00:57:15;;;;;;;4.65;2.10;;;;;;;22.89;78.84;99815.69;4439101;32;33050;-83
2023/08/17 00:59:44;;;;;;;4.22;2.42;;;;;;;22.80;79.02;99823.22;4441864;32;33443;-83
2023/08/17 01:02:31;;;;;;;4.85;2.67;;;;;;;22.69;80.46;99822.19;4437919;32;33642;-82
2023/08/17 01:05:00;;;;;;;3.15;1.90;;;;;;;22.80;78.98;99817.09;4447701;32;34188;-83
2023/08/17 01:07:29;;;;;;;4.75;2.53;;;;;;;22.95;78.47;99825.87;4440164;32;33778;-83
2023/08/17 01:09:59;;;;;;;3.03;1.98;;;;;;;23.23;76.72;99826.81;4440524;32;34806;-83
2023/08/17 01:12:31;;;;;;;4.50;2.67;;;;;;;23.12;76.58;99827.50;4441452;32;32968;-83
2023/08/17 01:15:06;;;;;;;3.75;2.33;;;;;;;23.18;75.32;99833.25;4449385;32;33583;-83
2023/08/17 01:17:39;;;;;;;6.05;1.70;;;;;;;23.26;74.66;99830.12;4442819;32;33766;-83
2023/08/17 01:20:12;;;;;;;2.45;1.52;;;;;;;23.09;75.79;99838.28;4441443;32;33519;-82
2023/08/17 01:22:42;;;;;;;4.28;2.20;;;;;;;23.18;74.55;99838.53;4441082;32;33945;-82
2023/08/17 01:25:13;;;;;;;3.20;1.90;;;;;;;23.21;74.64;99838.34;4442381;32;33642;-82
2023/08/17 01:27:46;;;;;;;4.30;2.40;;;;;;;23.02;75.03;99837.81;4446764;32;34497;-82
2023/08/17 01:30:16;;;;;;;3.22;1.92;;;;;;;23.14;74.78;99841.47;4443004;32;33562;-82
2023/08/17 01:32:49;;;;;;;3.97;2.47;;;;;;;23.27;73.89;99830.97;4439949;32;33467;-83
2023/08/17 01:35:22;;;;;;;3.62;1.92;;;;;;;23.03;74.71;99833.34;4440881;32;34186;-83
2023/08/17 01:37:52;;;;;;;3.55;2.03;;;;;;;23.12;74.57;99828.38;4444140;32;33728;-83
2023/08/17 01:40:24;;;;;;;4.20;1.92;;;;;;;23.21;74.21;99826.91;4448582;32;33189;-83
2023/08/17 01:42:53;;;;;;;5.00;2.33;;;;;;;22.95;75.18;99831.16;4442729;32;34342;-83
2023/08/17 01:45:22;;;;;;;4.22;2.17;;;;;;;23.04;75.42;99832.44;4442459;32;33479;-83
2023/08/17 01:47:51;;;;;;;4.32;2.33;;;;;;;23.02;75.42;99832.50;4439906;32;33705;-83
2023/08/17 01:50:20;;;;;;;3.95;2.50;;;;;;;22.99;76.03;99820.31;4448101;32;34428;-82
2023/08/17 01:52:53;;;;;;;2.95;1.87;;;;;;;22.89;76.28;99821.81;4439652;32;33022;-83
2023/08/17 01:55:23;;;;;;;3.53;2.12;;;;;;;23.23;74.76;99818.87;4439324;32;34588;-83
2023/08/17 01:57:52;;;;;;;4.20;2.42;;;;;;;23.13;75.42;99810.69;4441927;32;33285;-83
2023/08/17 02:00:21;;;;;;;2.70;1.87;;;;;;;23.20;75.08;99809.34;4446957;32;33746;-83
2023/08/17 02:02:50;;;;;;;3.70;2.28;;;;;;;23.11;75.46;99820.50;4445690;32;33944;-83
2023/08/17 02:05:19;;;;;;;4.37;2.20;;;;;;;23.29;75.03;99821.97;4436103;32;33350;-83
2023/08/17 02:07:48;;;;;;;4.47;2.40;;;;;;;23.19;75.69;99819.06;4438531;32;33659;-83
2023/08/17 02:10:17;;;;;;;2.45;1.77;;;;;;;23.05;77.10;99826.19;4440485;32;33585;-83
2023/08/17 02:12:47;;;;;;;4.70;2.62;;;;;;;23.19;76.66;99824.34;4443951;32;34302;-83
2023/08/17 02:15:16;;;;;;;4.40;2.65;;;;;;;23.09;77.19;99822.41;4441745;32;32814;-84
2023/08/17 02:17:45;;;;;;;5.78;3.03;;;;;;;23.25;77.12;99819.66;4441310;32;33838;-82
2023/08/17 02:20:14;;;;;;;4.62;2.72;;;;;;;23.23;77.11;99818.87;4442292;32;33535;-82
2023/08/17 02:22:43;;;;;;;4.10;2.58;;;;;;;23.20;77.79;99814.62;4446698;32;34221;-81
2023/08/17 02:25:12;;;;;;;3.42;2.17;;;;;;;23.31;77.14;99830.66;4440783;32;34842;-81
2023/08/17 02:27:41;;;;;;;3.20;2.08;;;;;;;23.34;77.37;99832.25;4441607;32;32444;-80
2023/08/17 02:30:12;;;;;;;4.20;2.33;;;;;;;23.38;77.46;99825.84;4439973;32;33524;-81
2023/08/17 02:32:41;;;;;;;6.00;3.22;;;;;;;23.12;79.58;99832.78;4442394;32;33130;-81
2023/08/17 02:35:11;;;;;;;4.55;2.65;;;;;;;23.09;79.68;99833.81;4449587;32;33237;-81
2023/08/17 02:37:42;;;;;;;4.35;2.50;;;;;;;23.02;80.48;99829.03;4442960;32;33654;-81
2023/08/17 02:40:11;;;;;;;5.70;3.00;;;;;;;23.15;79.96;99827.31;4444054;32;33515;-81
2023/08/17 02:42:40;;;;;;;4.82;2.83;;;;;;;23.31;78.29;99820.06;4439549;32;33077;-82
2023/08/17 02:45:11;;;;;;;4.68;2.78;;;;;;;23.26;78.66;99821.31;4447913;32;34123;-82
2023/08/17 02:47:40;;;;;;;3.95;2.45;;;;;;;23.38;78.21;99824.03;4444894;32;33655;-82
2023/08/17 02:50:09;;;;;;;6.62;3.10;;;;;;;23.49;77.33;99820.72;4440170;32;32829;-81
2023/08/17 02:52:38;;;;;;;4.15;2.47;;;;;;;23.51;76.83;99817.94;4443832;32;33420;-81
2023/08/17 02:55:08;;;;;;;3.67;2.35;;;;;;;23.61;75.90;99811.13;4441740;32;33590;-82
2023/08/17 02:57:37;;;;;;;4.78;2.75;;;;;;;23.63;75.85;99811.84;4450156;32;33748;-82
2023/08/17 03:00:06;;;;;;;3.53;2.42;;;;;;;23.66;75.75;99813.47;4441904;32;32826;-81
2023/08/17 03:02:37;;;;;;;4.95;2.83;;;;;;;23.69;75.70;99806.16;4443676;32;32871;-81
2023/08/17 03:05:06;;;;;;;4.70;2.72;;;;;;;23.54;76.23;99808.03;4441603;32;32792;-82
2023/08/17 03:07:35;;;;;;;4.78;2.65;;;;;;;23.36;77.85;99810.03;4450009;32;33652;-82
2023/08/17 03:10:05;;;;;;;3.55;2.40;;;;;;;23.62;76.50;99811.00;4440034;32;32884;-82
2023/08/17 03:12:34;;;;;;;3.40;2.37;;;;;;;23.63;76.38;99809.19;4441585;32;33203;-81
2023/08/17 03:15:03;;;;;;;4.75;2.85;;;;;;;23.39;77.93;99812.50;4443317;32;34181;-81
2023/08/17 03:17:32;;;;;;;3.83;2.30;;;;;;;23.51;77.98;99815.28;4445848;32;33520;-81
2023/08/17 03:20:02;;;;;;;5.32;2.50;;;;;;;23.59;76.88;99811.22;4447758;32;33848;-81
2023/08/17 03:22:31;;;;;;;4.03;2.90;;;;;;;23.64;76.45;99813.56;4438733;32;33571;-81
2023/08/17 03:25:00;;;;;;;4.00;2.40;;;;;;;23.62;76.33;99818.09;4439850;32;34604;-82
2023/08/17 03:27:29;;;;;;;3.50;2.20;;;;;;;23.72;75.69;99821.00;4444085;32;34697;-82
2023/08/17 03:29:58;;;;;;;3.65;2.53;;;;;;;23.70;75.15;99802.56;4444051;32;33756;-81
2023/08/17 03:32:27;;;;;;;4.90;2.70;;;;;;;23.61;75.69;99804.03;4442801;32;33689;-82
2023/08/17 03:34:56;;;;;;;4.28;2.60;;;;;;;23.63;75.28;99801.25;4441938;32;33911;-82
2023/08/17 03:37:27;;;;;;;4.80;2.97;;;;;;;23.53;76.04;99805.47;4444295;32;34173;-82
2023/08/17 03:39:56;;;;;;;3.35;2.42;;;;;;;23.55;75.53;99798.28;4447316;32;34347;-82
2023/08/17 03:42:25;;;;;;;3.20;2.12;;;;;;;23.52;75.85;99803.78;4442604;32;33794;-81
2023/08/17 03:44:54;;;;;;;4.22;2.15;;;;;;;23.40;76.20;99806.25;4442925;32;34223;-82
2023/08/17 03:47:22;;;;;;;4.55;2.78;;;;;;;23.49;75.99;99811.94;4441831;32;34030;-82
2023/08/17 03:49:52;;;;;;;3.92;2.30;;;;;;;23.49;76.32;99803.97;4444397;32;34632;-82
2023/08/17 03:52:21;;;;;;;4.53;2.15;;;;;;;23.56;75.50;99797.34;4446497;32;34231;-82
2023/08/17 03:54:51;;;;;;;3.50;2.25;;;;;;;23.47;75.77;99805.88;4441227;32;33637;-81
2023/08/17 03:57:20;;;;;;;3.50;2.22;;;;;;;23.66;75.05;99801.06;4442159;32;33988;-82
2023/08/17 03:59:49;;;;;;;3.62;2.37;;;;;;;23.40;76.03;99806.25;4443154;32;33477;-82
2023/08/17 04:02:18;;;;;;;4.40;2.78;;;;;;;23.61;74.92;99803.19;4447306;32;32882;-82
2023/08/17 04:04:47;;;;;;;3.70;2.20;;;;;;;23.60;74.88;99806.75;4444293;32;33565;-82
2023/08/17 04:07:22;;;;;;;4.85;2.65;;;;;;;23.62;74.16;99810.16;4443206;32;33895;-82
2023/08/17 04:09:56;;;;;;;4.25;2.28;;;;;;;23.48;75.08;99808.41;4441378;32;33702;-82
2023/08/17 04:12:25;;;;;;;3.67;2.05;;;;;;;23.45;75.06;99810.41;4441961;32;33280;-82
2023/08/17 04:14:55;;;;;;;4.00;2.30;;;;;;;23.41;75.44;99812.41;4450052;32;34272;-82
2023/08/17 04:17:24;;;;;;;5.37;2.60;;;;;;;23.46;75.75;99810.28;4442489;32;32404;-82
2023/08/17 04:19:53;;;;;;;5.87;2.65;;;;;;;23.29;76.84;99810.53;4444068;32;33913;-82
2023/08/17 04:22:23;;;;;;;4.20;2.55;;;;;;;23.41;76.21;99812.41;4438843;32;33991;-82
2023/08/17 04:24:51;;;;;;;4.20;2.50;;;;;;;23.43;76.16;99818.44;4448963;32;32838;-81
2023/08/17 04:27:22;;;;;;;5.28;2.37;;;;;;;23.32;76.63;99821.78;4441110;32;34728;-82
2023/08/17 04:29:51;;;;;;;3.47;2.30;;;;;;;23.42;75.80;99816.75;4444397;32;33846;-82
2023/08/17 04:32:20;;;;;;;4.25;2.28;;;;;;;23.16;77.55;99811.31;4442009;32;33886;-82
2023/08/17 04:34:49;;;;;;;4.28;2.60;;;;;;;23.37;76.74;99824.16;4442399;32;34310;-82
2023/08/17 04:37:21;;;;;;;2.65;1.87;;;;;;;23.34;76.56;99811.97;4447954;32;33759;-82
2023/08/17 04:39:51;;;;;;;3.25;2.10;;;;;;;23.39;76.56;99815.16;4442119;32;34132;-82
2023/08/17 04:42:21;;;;;;;3.47;2.07;;;;;;;23.42;76.64;99812.31;4440715;32;33747;-82
2023/08/17 04:44:50;;;;;;;4.43;2.37;;;;;;;23.33;77.02;99817.34;4442505;32;32909;-82
2023/08/17 04:47:19;;;;;;;2.85;1.77;;;;;;;23.46;76.57;99822.69;4447572;32;33800;-82
2023/08/17 04:49:48;;;;;;;5.15;2.75;;;;;;;23.53;75.88;99816.06;4443387;32;33618;-83
2023/08/17 04:52:17;;;;;;;3.87;2.12;;;;;;;23.55;75.90;99820.28;4441340;32;33780;-82
2023/08/17 04:54:46;;;;;;;3.75;2.72;;;;;;;23.50;75.98;99822.41;4444071;32;33191;-81
2023/08/17 04:57:15;;;;;;;6.82;2.00;;;;;;;23.58;75.55;99833.37;4443783;32;33491;-82
2023/08/17 04:59:45;;;;;;;3.08;1.92;;;;;;;23.66;75.44;99829.38;4447560;32;34451;-82
2023/08/17 05:02:15;;;;;;;4.10;2.40;;;;;;;23.52;75.98;99832.91;4442322;32;32897;-82
2023/08/17 05:04:47;;;;;;;5.15;2.87;;;;;;;23.46;76.72;99825.34;4441752;32;34494;-82
2023/08/17 05:07:16;;;;;;;4.80;2.72;;;;;;;23.78;75.13;99821.47;4444357;32;34776;-82
2023/08/17 05:09:45;;;;;;;4.50;2.50;;;;;;;23.77;75.89;99818.94;4448557;32;33494;-82
2023/08/17 05:12:14;;;;;;;4.87;3.45;;;;;;;23.82;76.23;99823.00;4438855;32;32355;-82
2023/08/17 05:14:43;;;;;;;5.62;2.17;;;;;;;23.83;76.87;99827.31;4441239;32;34637;-82
2023/08/17 05:17:13;;;;;;;5.30;2.75;;;;;;;24.03;77.35;99819.84;4443082;32;34684;-82
2023/08/17 05:19:42;;;;;;;5.90;3.60;;;;;;;24.47;75.54;99824.81;4444803;32;34403;-83
2023/08/17 05:22:12;;;;;;;5.32;2.75;;;;;;;24.73;71.64;99823.97;4448154;32;33002;-82
2023/08/17 05:24:41;;;;;;;3.85;2.42;;;;;;;24.44;72.68;99822.34;4442261;32;34414;-83
2023/08/17 05:27:09;;;;;;;5.68;3.05;;;;;;;24.64;72.20;99820.97;4438853;32;34330;-82
2023/08/17 05:29:38;;;;;;;3.95;2.25;;;;;;;24.41;73.21;99822.56;4442090;32;33624;-83
2023/08/17 05:32:07;;;;;;;4.87;2.95;;;;;;;24.40;72.54;99818.19;4447999;32;33414;-82
2023/08/17 05:34:37;;;;;;;5.55;2.70;;;;;;;24.39;72.49;99819.16;4442863;32;33722;-82
2023/08/17 05:37:06;;;;;;;4.12;2.53;;;;;;;24.44;73.32;99824.16;4443840;32;33842;-82
2023/08/17 05:39:36;;;;;;;4.30;2.33;;;;;;;24.54;73.14;99822.59;4437898;32;34378;-83
2023/08/17 05:42:05;;;;;;;4.93;2.60;;;;;;;24.45;73.52;99825.84;4444391;32;32953;-83
2023/08/17 05:44:36;;;;;;;4.87;2.25;;;;;;;24.39;74.07;99816.50;4441509;32;33924;-82
2023/08/17 05:47:05;;;;;;;4.32;2.47;;;;;;;24.21;72.85;99821.28;4441818;32;33896;-82
2023/08/17 05:49:34;;;;;;;4.32;3.10;;;;;;;24.20;74.21;99818.72;4441381;32;34103;-82
2023/08/17 05:52:05;;;;;;;5.03;2.37;;;;;;;24.75;71.89;99822.06;4438812;32;33925;-82
2023/08/17 05:54:33;;;;;;;3.70;2.22;;;;;;;24.67;72.55;99818.13;4444404;32;32933;-82
2023/08/17 05:57:03;;;;;;;3.87;2.40;;;;;;;24.76;72.84;99819.28;4442788;32;34093;-82
2023/08/17 05:59:32;;;;;;;4.10;2.05;;;;;;;24.59;74.12;99823.09;4439655;32;33683;-82
2023/08/17 06:02:00;;;;;;;4.18;2.40;;;;;;;24.82;73.37;99825.97;4439551;32;33001;-83
2023/08/17 06:04:29;;;;;;;3.97;2.70;;;;;;;24.94;73.50;99821.62;4445188;32;33732;-83
2023/08/17 06:06:58;;;;;;;4.75;2.60;;;;;;;25.17;72.08;99822.62;4441136;32;34666;-81
2023/08/17 06:09:28;;;;;;;5.75;2.80;;;;;;;25.20;72.06;99819.75;4442293;32;33509;-81
2023/08/17 06:11:57;;;;;;;4.18;2.40;;;;;;;24.93;72.50;99818.09;4437742;32;32539;-81
2023/08/17 06:14:26;;;;;;;4.93;2.58;;;;;;;24.98;72.34;99815.97;4438907;32;32750;-81
2023/08/17 06:16:54;;;;;;;4.32;2.62;;;;;;;25.34;70.72;99815.16;4443876;32;34142;-80
2023/08/17 06:19:24;;;;;;;4.37;2.65;;;;;;;24.90;72.64;99816.50;4441182;32;33713;-81
2023/08/17 06:21:52;;;;;;;4.07;2.42;;;;;;;24.97;70.93;99816.94;4426362;32;32106;-81
2023/08/17 06:24:21;;;;;;;4.72;2.47;;;;;;;24.92;71.38;99809.28;4440331;32;33717;-80
2023/08/17 06:26:52;;;;;;;4.15;2.17;;;;;;;24.89;72.13;99806.88;4441257;32;33935;-81
2023/08/17 06:29:20;;;;;;;4.77;2.77;;;;;;;25.21;69.40;99808.22;4442263;32;35136;-81
2023/08/17 06:31:49;;;;;;;4.40;2.58;;;;;;;25.04;70.80;99807.56;4442386;32;32883;-81
2023/08/17 06:34:18;;;;;;;5.55;3.03;;;;;;;24.41;69.39;99813.75;4444567;32;32626;-81
2023/08/17 06:36:57;;;;;;;4.00;2.03;;;;;;;24.57;68.27;99809.09;4449427;32;33744;-81
2023/08/17 06:39:27;;;;;;;4.55;2.25;;;;;;;24.55;67.41;99803.09;4450757;32;34487;-81
2023/08/17 06:41:57;;;;;;;5.32;3.03;;;;;;;24.49;69.56;99798.19;4443167;32;33149;-81
2023/08/17 06:44:26;;;;;;;5.30;2.85;;;;;;;24.59;68.34;99793.09;4441401;32;34510;-81
2023/08/17 06:46:55;;;;;;;4.50;2.42;;;;;;;24.64;69.45;99798.91;4440348;32;34450;-82
2023/08/17 06:49:23;;;;;;;4.65;2.83;;;;;;;24.61;69.42;99793.84;4449079;32;33621;-81
2023/08/17 06:51:52;;;;;;;4.25;2.60;;;;;;;24.74;69.60;99802.63;4444438;32;33194;-81
2023/08/17 06:54:21;;;;;;;5.28;2.85;;;;;;;24.67;70.19;99796.06;4444521;32;34316;-81
2023/08/17 06:56:50;;;;;;;5.62;3.15;;;;;;;24.81;69.11;99795.09;4443807;32;33490;-81
2023/08/17 06:59:20;;;;;;;3.53;2.30;;;;;;;24.91;67.87;99791.69;4449927;32;33278;-81
2023/08/17 07:01:49;;;;;;;4.37;2.65;;;;;;;25.29;69.28;99792.56;4447666;32;34029;-81
2023/08/17 07:04:18;;;;;;;4.40;2.25;;;;;;;24.96;68.56;99793.13;4444367;32;33830;-82
2023/08/17 07:06:47;;;;;;;7.30;3.08;;;;;;;25.41;66.35;99791.66;4442489;32;33690;-81
2023/08/17 07:09:16;;;;;;;6.07;2.92;;;;;;;25.10;68.78;99801.84;4441150;32;35916;-81
2023/08/17 07:11:46;;;;;;;4.68;2.65;;;;;;;25.37;67.38;99805.25;4444754;32;33018;-81
2023/08/17 07:14:14;;;;;;;5.90;3.12;;;;;;;25.03;66.84;99810.31;4439765;32;33631;-82
2023/08/17 07:16:45;;;;;;;4.35;2.22;;;;;;;25.34;67.47;99811.66;4444172;32;34667;-82
2023/08/17 07:19:14;;;;;;;4.53;2.83;;;;;;;25.37;67.75;99818.53;4443812;32;33552;-82
2023/08/17 07:21:42;;;;;;;4.80;2.58;;;;;;;25.40;66.95;99813.88;4449838;32;33771;-82
2023/08/17 07:24:16;;;;;;;4.37;2.65;;;;;;;25.34;67.67;99816.97;4443270;32;33641;-82
2023/08/17 07:26:45;;;;;;;6.37;3.42;;;;;;;25.45;65.74;99816.19;4443465;32;33483;-82
2023/08/17 07:29:14;;;;;;;4.20;2.58;;;;;;;25.82;66.03;99814.31;4444619;32;33594;-82
2023/08/17 07:31:42;;;;;;;5.18;3.08;;;;;;;25.25;67.09;99812.31;4443151;32;34313;-82
2023/08/17 07:34:13;;;;;;;5.30;2.55;;;;;;;25.19;66.06;99808.31;4449808;32;33672;-82
2023/08/17 07:36:42;;;;;;;4.85;2.55;;;;;;;24.73;68.92;99811.53;4444761;32;33063;-82
2023/08/17 07:39:11;;;;;;;5.62;2.78;;;;;;;25.05;67.89;99808.41;4444321;32;33823;-82
2023/08/17 07:41:40;;;;;;;5.53;2.92;;;;;;;25.38;67.25;99806.97;4444526;32;32817;-82
2023/08/17 07:44:09;;;;;;;4.87;2.62;;;;;;;25.67;67.31;99808.34;4450695;32;34282;-82
2023/08/17 07:46:37;;;;;;;5.95;3.53;;;;;;;25.53;66.36;99813.81;4444648;32;34858;-82
2023/08/17 07:49:06;;;;;;;4.40;2.55;;;;;;;25.87;66.28;99819.31;4446094;32;31774;-82
2023/08/17 07:51:51;;;;;;;4.85;2.80;;;;;;;25.98;66.89;99813.22;4443974;32;32905;-83
2023/08/17 07:54:20;;;;;;;5.63;3.33;;;;;;;25.70;66.66;99820.53;4440293;32;33645;-83
2023/08/17 07:56:49;;;;;;;4.57;2.75;;;;;;;25.91;67.59;99816.31;4447478;32;34816;-83
2023/08/17 07:59:18;;;;;;;3.62;2.40;;;;;;;26.29;66.21;99823.22;4440550;32;33010;-82
2023/08/17 08:01:49;;;;;;;3.87;3.00;;;;;;;26.18;65.69;99818.69;4441491;32;33627;-82
2023/08/17 08:04:18;;;;;;;4.72;2.30;;;;;;;26.11;64.44;99824.59;4440603;32;34516;-83
2023/08/17 08:06:47;;;;;;;4.55;2.30;;;;;;;26.18;64.24;99821.34;4446703;32;34901;-83
2023/08/17 08:09:17;;;;;;;3.08;1.85;;;;;;;26.18;63.20;99829.34;4442815;32;34686;-83
2023/08/17 08:11:46;;;;;;;3.85;2.62;;;;;;;26.40;63.15;99823.22;4444137;32;32948;-82
2023/08/17 08:14:14;;;;;;;3.25;2.17;;;;;;;26.47;63.52;99822.75;4445219;32;33516;-82
2023/08/17 08:16:43;;;;;;;3.67;2.10;;;;;;;26.44;62.52;99815.84;4426729;32;33230;-83
2023/08/17 08:19:12;;;;;;;4.60;2.60;;;;;;;26.72;62.57;99813.72;4449587;32;34451;-83
2023/08/17 08:21:41;;;;;;;4.60;3.08;;;;;;;26.81;63.21;99819.16;4439854;32;34346;-83
2023/08/17 08:24:09;;;;;;;4.07;2.25;;;;;;;26.75;62.46;99814.34;4438309;32;33521;-83
2023/08/17 08:27:00;;;;;;;3.62;1.92;;;;;;;26.74;63.41;99817.13;4439357;32;34459;-82
2023/08/17 08:29:28;;;;;;;3.22;1.98;;;;;;;27.10;59.93;99824.00;4443004;32;32889;-82
2023/08/17 08:31:59;;;;;;;3.80;2.10;;;;;;;26.72;61.49;99819.03;4449207;32;35169;-83
2023/08/17 08:34:28;;;;;;;3.10;1.90;;;;;;;26.93;61.33;99824.50;4443522;32;33725;-82
2023/08/17 08:36:57;;;;;;;3.42;1.87;;;;;;;26.32;60.49;99822.12;4439136;32;33478;-82
2023/08/17 08:39:26;;;;;;;4.40;2.42;;;;;;;27.10;59.61;99824.00;4441504;32;32647;-83
2023/08/17 08:41:55;;;;;;;3.45;2.37;;;;;;;27.22;59.88;99825.72;4447165;32;33775;-83
2023/08/17 08:44:25;;;;;;;3.83;1.98;;;;;;;27.52;58.66;99818.87;4441868;32;33829;-83
2023/08/17 08:46:55;;;;;;;3.75;2.08;;;;;;;27.49;57.39;99813.78;4439534;32;34014;-82
2023/08/17 08:49:25;;;;;;;4.82;2.25;;;;;;;27.10;59.11;99824.00;4438982;32;33485;-83
2023/08/17 08:51:59;;;;;;;3.03;1.62;;;;;;;27.50;58.60;99818.16;4443047;32;33552;-82
2023/08/17 08:54:32;;;;;;;3.67;2.08;;;;;;;27.17;60.05;99819.03;4443781;32;33483;-83
2023/08/17 08:57:14;;;;;;;4.00;2.53;;;;;;;27.59;59.56;99812.09;4438031;32;34472;-82
2023/08/17 08:59:49;;;;;;;4.53;2.50;;;;;;;27.51;58.88;99813.66;4441206;32;33669;-83
2023/08/17 09:02:17;;;;;;;4.25;1.58;;;;;;;27.53;56.05;99815.22;4440947;32;33268;-83
2023/08/17 09:04:52;;;;;;;2.30;1.52;;;;;;;27.69;58.52;99816.63;4441126;32;33500;-83
2023/08/17 09:07:23;;;;;;;3.03;1.92;;;;;;;27.84;56.43;99810.91;4444278;32;33654;-82
2023/08/17 09:09:53;;;;;;;5.70;3.05;;;;;;;27.82;59.16;99818.19;4440596;32;34138;-83
2023/08/17 09:12:22;;;;;;;3.47;2.05;;;;;;;27.95;60.19;99812.66;4440589;32;32304;-83
2023/08/17 09:15:09;;;;;;;2.80;1.40;;;;;;;28.03;60.20;99812.88;4438834;32;32807;-83
2023/08/17 09:17:39;;;;;;;2.55;1.35;;;;;;;27.89;57.88;99809.69;4446655;32;33990;-83
2023/08/17 09:20:10;;;;;;;2.97;1.57;;;;;;;28.01;57.65;99809.50;4447397;32;34347;-83
2023/08/17 09:22:39;;;;;;;;;;;;;;;28.23;58.75;99813.03;4444995;32;33429;-82
2023/08/17 09:25:11;;;;;;;4.28;1.98;;;;;;;28.35;57.61;99806.62;4439105;32;33414;-82
2023/08/17 09:27:41;;;;;;;3.80;1.40;;;;;;;28.29;58.81;99805.34;4440502;32;34030;-82
2023/08/17 09:30:12;;;;;;;1.77;1.12;;;;;;;28.33;59.10;99797.91;4447940;32;32855;-82
2023/08/17 09:32:49;;;;;;;5.15;2.20;;;;;;;28.32;58.80;99798.03;4440003;32;33076;-83
2023/08/17 09:35:18;;;;;;;3.40;1.58;;;;;;;28.24;59.79;99794.19;4443397;32;32434;-83
2023/08/17 09:37:56;;;;;;;2.17;1.23;;;;;;;28.20;58.51;99791.94;4443070;32;32937;-83
2023/08/17 09:40:27;;;;;;;4.43;2.00;;;;;;;28.04;56.25;99793.22;4443644;32;32814;-82
2023/08/17 09:42:55;;;;;;;2.65;1.40;;;;;;;28.09;56.75;99796.34;4443379;32;32730;-83
2023/08/17 09:45:28;;;;;;;2.40;1.48;;;;;;;28.33;57.16;99791.75;4439870;32;34603;-83
2023/08/17 09:47:59;;;;;;;3.08;1.40;;;;;;;28.38;58.30;99794.84;4438221;32;33473;-83
2023/08/17 09:50:31;;;;;;;2.28;1.50;;;;;;;28.56;57.85;99787.09;4442444;32;33495;-83
2023/08/17 09:53:01;;;;;;;4.15;1.85;;;;;;;28.64;56.98;99789.97;4440735;32;32865;-83
2023/08/17 09:55:31;;;;;;;2.92;1.50;;;;;;;28.71;56.32;99780.44;4447196;32;34081;-83
2023/08/17 09:57:59;;;;;;;1.92;1.12;;;;;;;28.85;56.67;99779.19;4442657;32;33755;-83
2023/08/17 10:00:31;;;;;;;1.52;1.08;;;;;;;28.71;53.70;99783.09;4439752;32;34966;-83
2023/08/17 10:03:04;;;;;;;2.87;1.87;;;;;;;28.88;56.21;99781.63;4441661;32;33254;-83
2023/08/17 10:05:41;;;;;;;2.17;1.25;;;;;;;28.81;55.61;99772.47;4443477;32;33602;-83
2023/08/17 10:08:20;;;;;;;2.50;1.40;;;;;;;29.04;57.12;99781.09;4437222;32;33730;-84
2023/08/17 10:10:49;;;;;;;2.25;1.30;;;;;;;29.10;54.15;99769.91;4434197;32;33053;-83
2023/08/17 10:13:29;;;;;;;2.55;1.40;;;;;;;29.24;53.35;99766.00;4442549;32;34018;-83
2023/08/17 10:16:04;;;;;;;2.55;1.17;;;;;;;29.25;51.90;99773.03;4442760;32;35660;-83
2023/08/17 10:18:39;;;;;;;2.83;1.23;;;;;;;29.31;52.79;99773.31;4449238;32;33797;-83
2023/08/17 10:21:13;;;;;;;1.87;1.25;;;;;;;29.51;52.91;99774.19;4442978;32;33696;-83
2023/08/17 10:23:42;;;;;;;3.35;1.70;;;;;;;29.52;51.07;99772.34;4442068;32;33842;-82
2023/08/17 10:26:11;;;;;;;3.33;1.55;;;;;;;29.24;50.50;99768.69;4443492;32;34829;-82
2023/08/17 10:28:41;;;;;;;3.25;1.62;;;;;;;28.88;50.17;99773.63;4442678;32;32858;-83
2023/08/17 10:31:11;;;;;;;1.98;1.12;;;;;;;29.50;50.59;99771.63;4447319;32;34415;-83
2023/08/17 10:33:42;;;;;;;;;;;;;;;29.39;51.25;99769.94;4444614;32;32958;-83
2023/08/17 10:36:11;;;;;;;2.12;1.10;;;;;;;28.78;51.65;99768.25;4444486;32;34146;-83
2023/08/17 10:38:40;;;;;;;2.37;1.48;;;;;;;29.11;50.07;99769.75;4443632;32;33762;-83
2023/08/17 10:41:10;;;;;;;1.87;1.25;;;;;;;29.38;50.12;99767.41;4447992;32;34274;-83
2023/08/17 10:43:55;;;;;;;1.70;1.10;;;;;;;29.51;50.23;99759.97;4440864;32;32607;-83
2023/08/17 10:46:34;;;;;;;1.98;1.30;;;;;;;29.65;49.85;99764.91;4440193;32;34292;-83
2023/08/17 10:49:07;;;;;;;3.70;1.15;;;;;;;29.69;49.11;99766.31;4444412;32;34110;-83
2023/08/17 10:51:36;;;;;;;3.28;1.75;;;;;;;29.78;49.33;99760.13;4442090;32;32953;-83
2023/08/17 10:54:06;;;;;;;3.10;1.80;;;;;;;30.15;50.92;99761.19;4446971;32;33550;-83
2023/08/17 10:56:35;;;;;;;3.25;1.55;;;;;;;30.20;49.07;99767.84;4448328;32;35175;-83
2023/08/17 10:59:27;;;;;;;2.20;1.37;;;;;;;30.44;48.36;99763.00;4445346;32;33891;-83
2023/08/17 11:01:58;;;;;;;2.42;2.05;;;;;;;30.42;47.35;99763.13;4444749;32;32565;-83
2023/08/17 11:04:26;;;;;;;2.37;1.45;;;;;;;30.43;47.83;99762.16;4444781;32;33897;-83
2023/08/17 11:07:03;;;;;;;2.62;1.52;;;;;;;30.22;48.08;99765.00;4446886;32;33560;-84
2023/08/17 11:09:36;;;;;;;2.70;1.60;;;;;;;30.39;47.45;99760.75;4449016;32;34423;-83
2023/08/17 11:12:06;;;;;;;2.53;1.23;;;;;;;30.68;48.52;99762.47;4441710;32;34107;-83
2023/08/17 11:14:35;;;;;;;2.40;1.23;;;;;;;30.79;48.12;99767.66;4439003;32;33007;-83
2023/08/17 11:17:10;;;;;;;1.73;1.25;;;;;;;30.73;47.24;99765.53;4440096;32;33673;-83
2023/08/17 11:19:42;;;;;;;2.60;1.27;;;;;;;30.27;46.72;99756.56;4448147;32;34602;-83
2023/08/17 11:22:11;;;;;;;3.60;1.73;;;;;;;30.28;50.33;99760.94;4444584;32;33743;-83
2023/08/17 11:24:43;;;;;;;2.53;1.30;;;;;;;30.32;47.99;99751.59;4444583;32;33743;-83
2023/08/17 11:27:13;;;;;;;4.47;2.87;;;;;;;30.50;49.30;99752.53;4439199;32;33083;-83
2023/08/17 11:29:42;;;;;;;3.17;1.50;;;;;;;30.34;48.71;99749.63;4444537;32;33735;-83
2023/08/17 11:32:17;;;;;;;1.35;1.10;;;;;;;30.20;49.48;99754.44;4449584;32;32783;-83
2023/08/17 11:34:46;;;;;;;6.28;2.37;;;;;;;29.82;48.37;99757.16;4444130;32;32934;-83
2023/08/17 11:37:15;;;;;;;4.22;1.87;;;;;;;30.03;48.10;99749.81;4443703;32;33985;-84
2023/08/17 11:39:46;;;;;;;2.03;1.20;;;;;;;30.12;48.80;99756.16;4442714;32;34610;-83
2023/08/17 11:42:15;;;;;;;2.80;1.50;;;;;;;30.25;48.09;99753.16;4446049;32;34315;-83
2023/08/17 11:44:48;;;;;;;4.18;1.48;;;;;;;30.25;47.26;99755.81;4446514;32;33333;-83
2023/08/17 11:47:19;;;;;;;1.92;1.08;;;;;;;30.46;50.30;99764.53;4439657;32;33462;-83
2023/08/17 11:49:49;;;;;;;2.25;1.35;;;;;;;30.28;48.50;99759.09;4440431;32;35567;-83